createdAt,value
2018-05-04T00:00:25.661Z,13.00
2018-05-04T00:03:31.922Z,12.60
2018-05-04T00:06:38.723Z,17.80
2018-05-04T00:09:45.022Z,13.00
2018-05-04T00:12:51.237Z,16.97
2018-05-04T00:15:57.291Z,12.90
2018-05-04T00:19:03.230Z,13.17
2018-05-04T00:22:14.076Z,12.20
2018-05-04T00:25:21.454Z,20.93
2018-05-04T00:28:27.943Z,14.80
2018-05-04T00:31:33.945Z,21.90
2018-05-04T00:34:40.025Z,17.20
2018-05-04T00:37:46.091Z,16.67
2018-05-04T00:40:51.974Z,14.20
2018-05-04T00:43:59.022Z,17.10
2018-05-04T00:47:05.186Z,16.00
2018-05-04T00:50:11.294Z,12.83
2018-05-04T00:53:17.671Z,18.27
2018-05-04T00:56:23.805Z,12.63
2018-05-04T00:59:30.058Z,14.27
2018-05-04T01:02:37.153Z,16.00
2018-05-04T01:05:43.182Z,13.53
2018-05-04T01:08:49.330Z,13.93
2018-05-04T01:11:55.218Z,12.07
2018-05-04T01:15:01.625Z,13.63
2018-05-04T01:18:07.488Z,15.03
2018-05-04T01:21:14.755Z,14.00
2018-05-04T01:24:20.959Z,14.20
2018-05-04T01:27:27.261Z,15.83
2018-05-04T01:30:33.234Z,15.07
2018-05-04T01:33:39.338Z,12.80
2018-05-04T01:36:45.368Z,14.17
2018-05-04T01:39:51.172Z,15.57
2018-05-04T01:43:00.478Z,13.77
2018-05-04T01:46:06.652Z,13.73
2018-05-04T01:49:12.581Z,17.43
2018-05-04T01:52:18.987Z,14.90
2018-05-04T01:55:25.176Z,15.43
2018-05-04T01:58:31.225Z,14.57
2018-05-04T02:01:37.116Z,16.50
2018-05-04T02:04:44.023Z,20.53
2018-05-04T02:07:50.059Z,14.13
2018-05-04T02:10:56.124Z,20.17
2018-05-04T02:14:02.163Z,15.30
2018-05-04T02:17:08.285Z,14.90
2018-05-04T02:20:14.483Z,15.10
2018-05-04T02:23:20.642Z,18.03
2018-05-04T02:26:26.541Z,16.20
2018-05-04T02:29:32.673Z,15.60
2018-05-04T02:32:38.799Z,17.93
2018-05-04T02:35:44.832Z,14.50
2018-05-04T02:38:50.755Z,15.80
2018-05-04T02:41:56.854Z,18.50
2018-05-04T02:45:02.677Z,17.20
2018-05-04T02:48:08.720Z,15.70
2018-05-04T02:51:14.022Z,18.40
2018-05-04T02:54:20.039Z,16.97
2018-05-04T02:57:25.996Z,17.00
2018-05-04T03:00:32.290Z,15.50
2018-05-04T03:03:38.345Z,19.10
2018-05-04T03:06:44.637Z,18.93
2018-05-04T03:09:50.627Z,21.00
2018-05-04T03:12:56.743Z,20.17
2018-05-04T03:16:02.865Z,20.17
2018-05-04T03:19:16.696Z,21.33
2018-05-04T03:22:22.572Z,21.13
2018-05-04T03:25:28.692Z,24.13
2018-05-04T03:28:34.560Z,20.53
2018-05-04T03:31:40.677Z,26.97
2018-05-04T03:34:46.864Z,25.80
2018-05-04T03:37:53.171Z,21.33
2018-05-04T03:40:59.286Z,22.00
2018-05-04T03:44:05.274Z,27.60
2018-05-04T03:47:11.264Z,22.17
2018-05-04T03:50:17.372Z,20.67
2018-05-04T03:53:23.590Z,22.30
2018-05-04T03:56:29.593Z,24.00
2018-05-04T03:59:47.723Z,22.13
2018-05-04T04:03:06.171Z,20.73
2018-05-04T04:06:12.623Z,23.00
2018-05-04T04:09:19.562Z,27.17
2018-05-04T04:12:25.647Z,20.90
2018-05-04T04:15:31.666Z,25.57
2018-05-04T04:18:37.997Z,24.50
2018-05-04T04:21:43.866Z,24.20
2018-05-04T04:24:50.161Z,23.43
2018-05-04T04:27:56.309Z,21.47
2018-05-04T04:31:02.413Z,23.43
2018-05-04T04:34:09.336Z,23.87
2018-05-04T04:37:15.144Z,25.03
2018-05-04T04:40:21.412Z,23.47
2018-05-04T04:43:27.472Z,26.63
2018-05-04T04:46:33.663Z,23.20
2018-05-04T04:49:39.742Z,20.83
2018-05-04T04:52:46.622Z,22.27
2018-05-04T04:55:52.794Z,22.90
2018-05-04T04:58:58.678Z,22.93
2018-05-04T05:02:04.968Z,23.20
2018-05-04T05:05:11.982Z,21.87
2018-05-04T05:08:18.161Z,23.50
2018-05-04T05:11:24.341Z,26.33
2018-05-04T05:14:30.425Z,23.80
2018-05-04T05:17:36.512Z,21.40
2018-05-04T05:20:42.641Z,24.53
2018-05-04T05:23:48.972Z,24.57
2018-05-04T05:26:55.106Z,22.83
2018-05-04T05:30:01.152Z,23.17
2018-05-04T05:33:08.368Z,20.60
2018-05-04T05:36:14.472Z,23.37
2018-05-04T05:39:21.421Z,20.60
2018-05-04T05:42:27.772Z,27.83
2018-05-04T05:45:33.524Z,22.07
2018-05-04T05:48:39.445Z,21.57
2018-05-04T05:51:45.723Z,22.07
2018-05-04T05:54:51.010Z,21.67
2018-05-04T05:57:57.103Z,21.43
2018-05-04T06:01:03.228Z,43.90
2018-05-04T06:04:09.311Z,20.97
2018-05-04T06:07:15.456Z,21.13
2018-05-04T06:10:21.563Z,19.80
2018-05-04T06:13:27.626Z,21.50
2018-05-04T06:16:32.952Z,21.47
2018-05-04T06:19:40.140Z,19.27
2018-05-04T06:22:47.249Z,21.93
2018-05-04T06:25:53.613Z,21.23
2018-05-04T06:28:59.681Z,21.83
2018-05-04T06:32:05.679Z,23.60
2018-05-04T06:35:11.920Z,21.13
2018-05-04T06:38:18.021Z,23.53
2018-05-04T06:41:24.957Z,19.27
2018-05-04T06:44:31.305Z,19.63
2018-05-04T06:47:37.428Z,20.97
2018-05-04T06:50:44.366Z,21.07
2018-05-04T06:53:50.610Z,19.07
2018-05-04T06:56:56.863Z,19.47
2018-05-04T07:00:02.907Z,23.93
2018-05-04T07:03:09.881Z,20.83
2018-05-04T07:06:15.107Z,19.70
2018-05-04T07:09:21.082Z,23.10
2018-05-04T07:12:27.417Z,19.40
2018-05-04T07:15:33.141Z,17.57
2018-05-04T07:18:40.075Z,21.40
2018-05-04T07:21:46.247Z,24.63
2018-05-04T07:24:52.453Z,17.20
2018-05-04T07:27:58.458Z,17.70
2018-05-04T07:31:04.588Z,17.53
2018-05-04T07:34:10.749Z,17.17
2018-05-04T07:37:16.895Z,19.13
2018-05-04T07:40:22.988Z,18.70
2018-05-04T07:43:29.336Z,16.00
2018-05-04T07:46:35.380Z,22.07
2018-05-04T07:49:41.380Z,16.73
2018-05-04T07:52:47.820Z,15.43
2018-05-04T07:55:53.917Z,16.30
2018-05-04T07:59:00.136Z,16.90
2018-05-04T08:02:07.200Z,21.83
2018-05-04T08:05:13.113Z,17.17
2018-05-04T08:08:19.309Z,19.90
2018-05-04T08:11:25.424Z,15.40
2018-05-04T08:14:31.496Z,15.80
2018-05-04T08:17:39.322Z,14.57
2018-05-04T08:20:45.422Z,16.80
2018-05-04T08:23:51.670Z,15.63
2018-05-04T08:26:57.828Z,16.60
2018-05-04T08:30:04.112Z,16.57
2018-05-04T08:33:10.457Z,15.27
2018-05-04T08:36:16.596Z,17.60
2018-05-04T08:39:22.685Z,21.43
2018-05-04T08:42:28.698Z,16.23
2018-05-04T08:45:34.662Z,20.30
2018-05-04T08:48:40.560Z,15.30
2018-05-04T08:51:58.562Z,19.70
2018-05-04T08:55:04.694Z,16.60
2018-05-04T08:58:10.591Z,17.73
2018-05-04T09:01:16.685Z,14.93
2018-05-04T09:04:22.807Z,15.90
2018-05-04T09:07:28.948Z,14.40
2018-05-04T09:10:34.902Z,14.80
2018-05-04T09:13:41.190Z,15.60
2018-05-04T09:16:47.337Z,15.37
2018-05-04T09:19:53.436Z,14.30
2018-05-04T09:22:59.676Z,16.30
2018-05-04T09:26:05.898Z,18.73
2018-05-04T09:29:12.002Z,18.77
2018-05-04T09:32:18.035Z,15.07
2018-05-04T09:35:24.123Z,20.30
2018-05-04T09:38:30.381Z,17.43
2018-05-04T09:41:36.738Z,16.47
2018-05-04T09:44:42.784Z,17.43
2018-05-04T09:47:49.074Z,17.17
2018-05-04T09:50:55.072Z,18.90
2018-05-04T09:54:01.964Z,16.60
2018-05-04T09:57:08.149Z,26.23
2018-05-04T10:00:14.475Z,18.60
2018-05-04T10:03:20.667Z,20.63
2018-05-04T10:06:26.663Z,19.03
2018-05-04T10:09:32.513Z,21.53
2018-05-04T10:12:38.813Z,19.17
2018-05-04T10:15:44.864Z,25.93
2018-05-04T10:18:50.871Z,18.90
2018-05-04T10:21:56.835Z,22.23
2018-05-04T10:25:03.069Z,22.10
2018-05-04T10:28:09.028Z,26.13
2018-05-04T10:31:15.025Z,22.77
2018-05-04T10:34:21.220Z,31.17
2018-05-04T10:37:27.891Z,29.40
2018-05-04T10:40:35.428Z,28.93
2018-05-04T10:43:42.617Z,27.60
2018-05-04T10:46:49.566Z,32.70
2018-05-04T10:49:55.621Z,30.27
2018-05-04T10:53:17.176Z,29.97
2018-05-04T10:56:23.335Z,29.23
2018-05-04T10:59:29.421Z,28.80
2018-05-04T11:02:34.650Z,31.43
2018-05-04T11:05:40.800Z,27.83
2018-05-04T11:08:46.907Z,29.13
2018-05-04T11:11:53.075Z,28.13
2018-05-04T11:14:59.054Z,28.00
2018-05-04T11:18:04.540Z,25.60
2018-05-04T11:21:10.565Z,28.00
2018-05-04T11:24:16.869Z,29.77
2018-05-04T11:27:22.975Z,27.03
2018-05-04T11:30:29.055Z,25.30
2018-05-04T11:33:35.284Z,25.40
2018-05-04T11:36:41.405Z,27.63
2018-05-04T11:39:54.557Z,27.90
2018-05-04T11:43:00.428Z,26.27
2018-05-04T11:46:06.394Z,24.93
2018-05-04T11:49:12.585Z,25.50
2018-05-04T11:52:18.630Z,28.60
2018-05-04T11:55:24.841Z,23.13
2018-05-04T11:58:30.885Z,23.97
2018-05-04T12:01:36.973Z,23.63
2018-05-04T12:04:43.346Z,21.30
2018-05-04T12:07:49.208Z,24.80
2018-05-04T12:10:55.249Z,23.00
2018-05-04T12:14:01.264Z,30.37
2018-05-04T12:17:07.513Z,24.97
2018-05-04T12:20:13.764Z,23.20
2018-05-04T12:23:21.501Z,24.13
2018-05-04T12:26:27.283Z,22.50
2018-05-04T12:29:33.296Z,25.77
2018-05-04T12:32:40.156Z,19.83
2018-05-04T12:35:46.182Z,23.37
2018-05-04T12:38:52.352Z,22.73
2018-05-04T12:41:58.394Z,21.87
2018-05-04T12:45:04.564Z,23.63
2018-05-04T12:48:10.550Z,22.97
2018-05-04T12:51:17.211Z,21.37
2018-05-04T12:54:23.807Z,21.47
2018-05-04T12:57:29.927Z,19.73
2018-05-04T13:00:36.792Z,24.10
2018-05-04T13:03:42.697Z,24.20
2018-05-04T13:06:48.806Z,25.70
2018-05-04T13:09:54.768Z,22.77
2018-05-04T13:13:00.350Z,22.80
2018-05-04T13:16:06.233Z,23.20
2018-05-04T13:19:13.348Z,25.83
2018-05-04T13:22:19.598Z,23.63
2018-05-04T13:25:28.160Z,22.63
2018-05-04T13:28:37.495Z,24.30
2018-05-04T13:31:43.919Z,22.00
2018-05-04T13:34:54.810Z,23.67
2018-05-04T13:38:01.269Z,25.20
2018-05-04T13:41:07.661Z,22.40
2018-05-04T13:44:13.973Z,23.93
2018-05-04T13:47:21.493Z,22.47
2018-05-04T13:50:28.222Z,22.07
2018-05-04T13:53:35.028Z,24.50
2018-05-04T13:56:41.043Z,22.30
2018-05-04T13:59:46.939Z,24.50
2018-05-04T14:02:55.897Z,22.37
2018-05-04T14:06:04.072Z,25.43
2018-05-04T14:09:10.730Z,22.17
2018-05-04T14:12:17.581Z,23.47
2018-05-04T14:15:23.777Z,24.43
2018-05-04T14:18:29.912Z,21.80
2018-05-04T14:21:37.065Z,25.00
2018-05-04T14:24:44.895Z,23.07
2018-05-04T14:27:53.105Z,22.43
2018-05-04T14:31:00.354Z,23.13
2018-05-04T14:34:09.188Z,20.73
2018-05-04T14:37:18.709Z,21.83
2018-05-04T14:40:27.667Z,22.67
2018-05-04T14:43:34.014Z,22.03
2018-05-04T14:46:41.165Z,21.83
2018-05-04T14:49:48.467Z,21.23
2018-05-04T14:52:54.481Z,21.80
2018-05-04T14:56:00.912Z,23.43
2018-05-04T14:59:08.270Z,20.33
2018-05-04T15:02:14.951Z,24.60
2018-05-04T15:05:22.023Z,22.17
2018-05-04T15:08:28.832Z,20.47
2018-05-04T15:11:38.311Z,24.70
2018-05-04T15:14:46.476Z,21.17
2018-05-04T15:17:52.389Z,23.60
2018-05-04T15:20:58.324Z,22.07
2018-05-04T15:24:07.901Z,22.10
2018-05-04T15:27:14.354Z,23.30
2018-05-04T15:30:24.684Z,23.53
2018-05-04T15:33:33.570Z,22.73
2018-05-04T15:36:41.012Z,24.97
2018-05-04T15:39:47.699Z,22.73
2018-05-04T15:43:00.024Z,23.33
2018-05-04T15:46:08.989Z,23.87
2018-05-04T15:49:22.804Z,25.63
2018-05-04T15:52:30.131Z,27.60
2018-05-04T15:55:37.810Z,23.30
2018-05-04T15:58:43.941Z,23.70
2018-05-04T16:01:51.072Z,23.03
2018-05-04T16:04:57.619Z,25.77
2018-05-04T16:08:04.484Z,24.77
2018-05-04T16:11:12.793Z,25.63
2018-05-04T16:14:20.847Z,23.67
2018-05-04T16:17:29.214Z,22.67
2018-05-04T16:20:36.400Z,22.37
2018-05-04T16:23:42.465Z,23.23
2018-05-04T16:26:50.241Z,25.60
2018-05-04T16:29:56.271Z,26.20
2018-05-04T16:33:02.522Z,23.83
2018-05-04T16:36:08.525Z,24.73
2018-05-04T16:39:14.407Z,25.70
2018-05-04T16:42:22.002Z,25.40
2018-05-04T16:45:29.043Z,27.33
2018-05-04T16:48:41.468Z,26.30
2018-05-04T16:51:51.936Z,29.53
2018-05-04T16:55:00.028Z,32.27
2018-05-04T16:58:07.878Z,27.20
2018-05-04T17:01:18.421Z,28.90
2018-05-04T17:04:26.007Z,24.27
2018-05-04T17:07:32.394Z,25.13
2018-05-04T17:10:41.373Z,26.93
2018-05-04T17:13:52.421Z,25.10
2018-05-04T17:16:59.475Z,26.93
2018-05-04T17:20:08.365Z,27.80
2018-05-04T17:23:15.505Z,25.67
2018-05-04T17:26:25.826Z,28.63
2018-05-04T17:29:32.609Z,28.00
2018-05-04T17:32:42.067Z,27.00
2018-05-04T17:35:54.933Z,26.77
2018-05-04T17:39:02.339Z,28.97
2018-05-04T17:42:09.335Z,28.80
2018-05-04T17:45:15.662Z,27.33
2018-05-04T17:48:22.395Z,27.37
2018-05-04T17:51:29.675Z,28.20
2018-05-04T17:54:38.121Z,26.17
2018-05-04T17:57:51.488Z,27.67
2018-05-04T18:00:59.939Z,26.87
2018-05-04T18:04:06.058Z,23.13
2018-05-04T18:07:14.091Z,31.80
2018-05-04T18:10:20.958Z,26.83
2018-05-04T18:13:33.439Z,29.00
2018-05-04T18:16:39.951Z,25.70
2018-05-04T18:19:46.172Z,27.47
2018-05-04T18:22:53.260Z,27.57
2018-05-04T18:26:02.033Z,27.57
2018-05-04T18:29:10.288Z,29.23
2018-05-04T18:32:17.572Z,26.53
2018-05-04T18:35:23.748Z,30.40
2018-05-04T18:38:32.946Z,26.10
2018-05-04T18:41:40.651Z,26.60
2018-05-04T18:44:46.415Z,28.53
2018-05-04T18:47:54.792Z,31.50
2018-05-04T18:51:02.487Z,30.40
2018-05-04T18:54:08.642Z,33.30
2018-05-04T18:57:15.596Z,28.77
2018-05-04T19:00:22.652Z,26.37
2018-05-04T19:03:29.614Z,27.73
2018-05-04T19:06:38.740Z,31.27
2018-05-04T19:09:57.834Z,28.90
2018-05-04T19:13:03.832Z,27.03
2018-05-04T19:16:11.140Z,28.47
2018-05-04T19:19:19.249Z,29.67
2018-05-04T19:22:26.175Z,33.03
2018-05-04T19:25:33.348Z,32.20
2018-05-04T19:28:39.680Z,29.03
2018-05-04T19:31:45.856Z,30.00
2018-05-04T19:34:51.846Z,28.60
2018-05-04T19:37:58.316Z,25.97
2018-05-04T19:41:04.928Z,29.53
2018-05-04T19:44:11.220Z,28.80
2018-05-04T19:47:20.249Z,32.00
2018-05-04T19:50:27.329Z,27.87
2018-05-04T19:53:34.336Z,29.73
2018-05-04T19:56:40.344Z,31.33
2018-05-04T19:59:46.764Z,27.43
2018-05-04T20:02:53.717Z,27.10
2018-05-04T20:05:59.657Z,28.13
2018-05-04T20:09:05.796Z,35.70
2018-05-04T20:12:11.766Z,27.70
2018-05-04T20:15:17.809Z,27.97
2018-05-04T20:18:24.073Z,27.70
2018-05-04T20:21:30.063Z,31.63
2018-05-04T20:24:36.165Z,26.20
2018-05-04T20:27:42.169Z,28.57
2018-05-04T20:30:49.049Z,27.83
2018-05-04T20:33:54.980Z,26.57
2018-05-04T20:37:01.597Z,26.23
2018-05-04T20:40:08.475Z,27.43
2018-05-04T20:43:15.357Z,26.37
2018-05-04T20:46:21.678Z,28.80
2018-05-04T20:49:27.700Z,27.87
2018-05-04T20:52:33.958Z,30.30
2018-05-04T20:55:40.366Z,27.00
2018-05-04T20:58:46.165Z,26.60
2018-05-04T21:01:52.383Z,27.73
2018-05-04T21:04:58.139Z,26.00
2018-05-04T21:08:04.386Z,25.87
2018-05-04T21:11:10.521Z,28.33
2018-05-04T21:14:16.656Z,28.63
2018-05-04T21:17:22.920Z,28.57
2018-05-04T21:20:28.913Z,26.80
2018-05-04T21:23:35.176Z,30.67
2018-05-04T21:26:41.789Z,29.77
2018-05-04T21:29:47.904Z,28.50
2018-05-04T21:32:54.097Z,28.60
2018-05-04T21:35:59.949Z,29.40
2018-05-04T21:39:06.198Z,27.83
2018-05-04T21:42:21.211Z,27.90
2018-05-04T21:45:27.001Z,27.93
2018-05-04T21:48:33.003Z,28.60
2018-05-04T21:51:38.964Z,29.07
2018-05-04T21:54:45.085Z,28.20
2018-05-04T21:57:51.057Z,31.13
2018-05-04T22:00:57.334Z,27.10
2018-05-04T22:04:04.235Z,27.20
2018-05-04T22:07:10.265Z,28.13
2018-05-04T22:10:16.145Z,29.63
2018-05-04T22:13:22.279Z,28.13
2018-05-04T22:16:32.350Z,30.43
2018-05-04T22:19:39.101Z,30.87
2018-05-04T22:22:45.243Z,27.63
2018-05-04T22:26:00.367Z,28.43
2018-05-04T22:29:06.691Z,32.23
2018-05-04T22:32:12.936Z,30.20
2018-05-04T22:35:19.074Z,28.87
2018-05-04T22:38:25.074Z,37.43
2018-05-04T22:41:31.246Z,33.43
2018-05-04T22:44:37.472Z,33.00
2018-05-04T22:47:44.618Z,55.10
2018-05-04T22:50:50.469Z,35.03
2018-05-04T22:53:56.611Z,35.30
2018-05-04T22:57:02.492Z,35.17
2018-05-04T23:00:08.820Z,35.73
2018-05-04T23:03:14.945Z,37.23
2018-05-04T23:06:21.165Z,34.53
2018-05-04T23:09:27.268Z,37.23
2018-05-04T23:12:32.637Z,33.67
2018-05-04T23:15:38.874Z,33.47
2018-05-04T23:18:46.059Z,33.47
2018-05-04T23:21:52.111Z,36.37
2018-05-04T23:24:57.930Z,38.57
2018-05-04T23:28:03.977Z,32.63
2018-05-04T23:31:10.144Z,31.87
2018-05-04T23:34:16.071Z,25.97
2018-05-04T23:37:22.125Z,25.17
2018-05-04T23:40:28.215Z,23.13
2018-05-04T23:43:34.417Z,29.17
2018-05-04T23:46:40.535Z,23.30
2018-05-04T23:49:46.631Z,25.17
2018-05-04T23:52:52.661Z,25.20
2018-05-04T23:55:58.901Z,21.13
2018-05-04T23:59:05.770Z,20.20
